Time;durP1;ratioP1;P1;durP2;ratioP2;P2;SDS_P1;SDS_P2;PMS_P1;PMS_P2;Temp;Humidity;BMP_temperature;BMP_pressure;BME280_temperature;BME280_humidity;BME280_pressure;Samples;Min_cycle;Max_cycle;Signal;HPM_P1;HPM_P2
2022/10/28 00:01:20;;;;;;;3.87;1.87;;;14.00;99.90;;;;;;5055137;28;20427;-64
2022/10/28 00:03:48;;;;;;;4.87;1.73;;;14.10;99.90;;;;;;5054909;28;20263;-65
2022/10/28 00:06:20;;;;;;;23.43;2.60;;;14.00;99.90;;;;;;5055255;28;20455;-64
2022/10/28 00:08:46;;;;;;;3.33;1.63;;;14.00;99.90;;;;;;5055112;28;20439;-65
2022/10/28 00:11:17;;;;;;;4.47;2.60;;;14.00;99.90;;;;;;5040988;28;20467;-65
2022/10/28 00:13:44;;;;;;;5.30;2.50;;;13.90;99.90;;;;;;5048140;28;20202;-64
2022/10/28 00:16:13;;;;;;;5.50;2.00;;;14.00;99.90;;;;;;5054776;28;20509;-65
2022/10/28 00:18:39;;;;;;;2.50;1.70;;;13.80;99.90;;;;;;5054652;28;20435;-65
2022/10/28 00:21:08;;;;;;;4.27;2.53;;;13.70;99.90;;;;;;5054941;28;20416;-65
2022/10/28 00:23:34;;;;;;;27.77;2.47;;;13.70;99.90;;;;;;5053868;28;20894;-65
2022/10/28 00:26:08;;;;;;;3.60;1.80;;;13.70;99.90;;;;;;5054851;28;20457;-64
2022/10/28 00:28:34;;;;;;;3.90;2.33;;;13.70;99.90;;;;;;5054074;28;20197;-65
2022/10/28 00:31:05;;;;;;;3.20;1.63;;;13.70;99.90;;;;;;5052894;28;20412;-64
2022/10/28 00:33:31;;;;;;;4.70;2.27;;;13.70;99.90;;;;;;5053828;28;20475;-64
2022/10/28 00:36:05;;;;;;;6.93;2.30;;;13.70;99.90;;;;;;5054478;28;20426;-64
2022/10/28 00:38:31;;;;;;;3.33;1.87;;;13.60;99.90;;;;;;5054078;28;20859;-64
2022/10/28 00:40:56;;;;;;;3.87;2.17;;;13.60;99.90;;;;;;5054698;28;20448;-64
2022/10/28 00:43:35;;;;;;;7.60;2.53;;;13.60;99.90;;;;;;5052271;28;20182;-64
2022/10/28 00:46:01;;;;;;;7.30;2.37;;;13.70;99.90;;;;;;5054402;28;20186;-64
2022/10/28 00:48:27;;;;;;;10.20;2.63;;;13.70;99.90;;;;;;5053832;28;20940;-65
2022/10/28 00:50:54;;;;;;;3.73;1.90;;;13.60;99.90;;;;;;5054619;28;20451;-64
2022/10/28 00:53:31;;;;;;;4.00;1.97;;;13.50;99.90;;;;;;5053749;28;20455;-64
2022/10/28 00:56:00;;;;;;;4.43;2.30;;;13.50;99.90;;;;;;5054388;28;20448;-64
2022/10/28 00:58:26;;;;;;;8.17;2.90;;;13.60;99.90;;;;;;5053780;28;20979;-65
2022/10/28 01:00:52;;;;;;;7.70;2.53;;;13.50;99.90;;;;;;5053269;28;20425;-64
2022/10/28 01:03:18;;;;;;;4.90;2.20;;;13.60;99.90;;;;;;5053301;28;20578;-64
2022/10/28 01:05:47;;;;;;;2.90;1.97;;;13.40;99.90;;;;;;5053175;28;20514;-64
2022/10/28 01:08:13;;;;;;;9.13;1.90;;;13.40;99.90;;;;;;5053536;28;20205;-64
2022/10/28 01:10:41;;;;;;;9.93;2.77;;;13.40;99.90;;;;;;5053798;28;20448;-64
2022/10/28 01:13:19;;;;;;;5.80;1.80;;;13.30;99.90;;;;;;5045044;28;20291;-64
2022/10/28 01:15:58;;;;;;;6.53;2.20;;;13.20;99.90;;;;;;5053589;28;20757;-64
2022/10/28 01:18:36;;;;;;;7.60;2.80;;;13.20;99.90;;;;;;5053540;28;21100;-64
2022/10/28 01:21:26;;;;;;;9.43;2.30;;;13.10;99.90;;;;;;5051873;28;20926;-64
2022/10/28 01:24:16;;;;;;;8.53;2.40;;;13.00;99.90;;;;;;5053060;28;21061;-64
2022/10/28 01:27:01;;;;;;;6.50;3.43;;;13.00;99.90;;;;;;5053460;28;20503;-64
2022/10/28 01:29:54;;;;;;;10.37;2.63;;;13.00;99.90;;;;;;5042586;28;20452;-64
2022/10/28 01:32:36;;;;;;;7.00;1.70;;;13.00;99.90;;;;;;5052968;28;20451;-65
2022/10/28 01:35:31;;;;;;;22.63;2.63;;;13.20;99.90;;;;;;5053439;28;20476;-64
2022/10/28 01:38:23;;;;;;;4.87;2.83;;;12.90;99.90;;;;;;5053516;28;20408;-64
2022/10/28 01:41:00;;;;;;;7.67;1.87;;;12.80;99.90;;;;;;5042874;28;20426;-65
2022/10/28 01:43:33;;;;;;;5.77;2.17;;;12.80;99.90;;;;;;5052583;28;20415;-64
2022/10/28 01:46:07;;;;;;;3.40;1.90;;;12.80;99.90;;;;;;5051849;28;20428;-64
2022/10/28 01:48:38;;;;;;;10.90;2.13;;;12.70;99.90;;;;;;5053074;28;20420;-64
2022/10/28 01:51:10;;;;;;;6.07;2.23;;;12.70;99.90;;;;;;5053052;28;20451;-64
2022/10/28 01:53:40;;;;;;;2.50;1.73;;;12.70;99.90;;;;;;5052606;28;20463;-64
2022/10/28 01:56:10;;;;;;;5.93;2.63;;;12.70;99.90;;;;;;5052985;28;20408;-65
2022/10/28 01:58:37;;;;;;;5.70;2.47;;;12.70;99.90;;;;;;5052577;28;20425;-64
2022/10/28 02:01:06;;;;;;;11.40;2.87;;;12.70;99.90;;;;;;5052433;28;20952;-64
2022/10/28 02:03:31;;;;;;;9.83;2.27;;;12.70;99.90;;;;;;5052677;28;20432;-64
2022/10/28 02:06:01;;;;;;;3.53;2.00;;;12.70;99.90;;;;;;5052813;28;20428;-64
2022/10/28 02:08:51;;;;;;;10.23;1.80;;;12.70;99.90;;;;;;5045078;28;20709;-65
2022/10/28 02:11:25;;;;;;;6.20;2.47;;;12.70;99.90;;;;;;5052322;28;20408;-65
2022/10/28 02:14:20;;;;;;;2.70;1.63;;;12.60;99.90;;;;;;5051579;28;20491;-65
2022/10/28 02:16:53;;;;;;;4.70;1.80;;;12.60;99.90;;;;;;5052085;28;20424;-64
2022/10/28 02:19:33;;;;;;;5.40;2.60;;;12.60;99.90;;;;;;5052163;28;20420;-65
2022/10/28 02:22:20;;;;;;;9.50;2.60;;;12.50;99.90;;;;;;5052087;28;20447;-64
2022/10/28 02:24:46;;;;;;;3.00;2.17;;;12.50;99.90;;;;;;5052736;28;20759;-65
2022/10/28 02:27:24;;;;;;;5.63;2.10;;;12.40;99.90;;;;;;5051916;28;20416;-65
2022/10/28 02:30:00;;;;;;;6.70;2.33;;;12.30;99.90;;;;;;5051445;28;20190;-64
2022/10/28 02:32:30;;;;;;;3.40;1.93;;;12.30;99.90;;;;;;5051901;28;20404;-64
2022/10/28 02:34:59;;;;;;;5.47;2.30;;;12.30;99.90;;;;;;5052275;28;21172;-64
2022/10/28 02:37:37;;;;;;;4.47;2.00;;;12.20;99.90;;;;;;5052312;28;20439;-64
2022/10/28 02:40:08;;;;;;;8.43;2.67;;;12.20;99.90;;;;;;5052004;28;20432;-64
2022/10/28 02:42:37;;;;;;;3.10;1.60;;;12.20;99.90;;;;;;5050079;28;20794;-64
2022/10/28 02:45:09;;;;;;;3.87;2.00;;;12.20;99.90;;;;;;5051917;28;20922;-64
2022/10/28 02:47:39;;;;;;;3.97;1.57;;;12.20;99.90;;;;;;5052011;28;20420;-64
2022/10/28 02:50:11;;;;;;;6.50;2.40;;;12.20;99.90;;;;;;5051954;28;20420;-64
2022/10/28 02:52:41;;;;;;;3.40;1.73;;;12.20;99.90;;;;;;5051370;28;20428;-64
2022/10/28 02:55:07;;;;;;;7.37;2.43;;;12.20;99.90;;;;;;5039299;28;20468;-64
2022/10/28 02:57:38;;;;;;;5.47;2.03;;;12.30;99.90;;;;;;5051227;28;20466;-64
2022/10/28 03:00:10;;;;;;;9.63;2.10;;;12.30;99.90;;;;;;5051535;28;20423;-64
2022/10/28 03:02:36;;;;;;;8.63;2.87;;;12.30;99.90;;;;;;5051070;28;20439;-65
2022/10/28 03:05:04;;;;;;;16.33;3.20;;;12.40;99.90;;;;;;5050522;28;20558;-64
2022/10/28 03:07:29;;;;;;;4.17;1.80;;;12.50;99.90;;;;;;5051610;28;20182;-65
2022/10/28 03:09:55;;;;;;;11.87;1.87;;;12.50;99.90;;;;;;5051979;28;20423;-65
2022/10/28 03:12:20;;;;;;;8.17;3.30;;;12.60;99.90;;;;;;5050617;28;20269;-64
2022/10/28 03:14:46;;;;;;;6.60;2.33;;;12.60;99.90;;;;;;5052053;28;20703;-64
2022/10/28 03:17:11;;;;;;;5.20;2.50;;;12.70;99.90;;;;;;5051359;28;20189;-65
2022/10/28 03:19:37;;;;;;;3.40;1.50;;;14.10;99.90;;;;;;5046565;28;20661;-65
2022/10/28 03:22:03;;;;;;;4.40;1.30;;;12.90;99.90;;;;;;5050819;28;20184;-65
2022/10/28 03:24:28;;;;;;;8.20;1.87;;;13.30;99.90;;;;;;5051637;28;20670;-65
2022/10/28 03:26:54;;;;;;;3.00;1.67;;;13.80;99.90;;;;;;5050695;28;20177;-65
2022/10/28 03:29:20;;;;;;;3.30;1.70;;;13.10;99.90;;;;;;5051559;28;20189;-65
2022/10/28 03:31:45;;;;;;;9.13;2.00;;;13.10;99.90;;;;;;5049202;28;20185;-64
2022/10/28 03:34:11;;;;;;;8.23;2.47;;;13.10;99.90;;;;;;5050201;28;20308;-64
2022/10/28 03:36:36;;;;;;;15.57;2.10;;;13.20;99.90;;;;;;5051236;28;20181;-64
2022/10/28 03:39:02;;;;;;;4.90;1.87;;;13.20;99.90;;;;;;5051606;28;20761;-64
2022/10/28 03:41:28;;;;;;;8.00;2.80;;;13.30;99.90;;;;;;5049926;28;20182;-65
2022/10/28 03:43:53;;;;;;;3.77;1.77;;;13.20;99.90;;;;;;5050630;28;20178;-65
2022/10/28 03:46:19;;;;;;;2.73;1.40;;;13.10;99.90;;;;;;5050957;28;20755;-65
2022/10/28 03:48:44;;;;;;;4.13;2.20;;;13.20;99.90;;;;;;5051083;28;20243;-64
2022/10/28 03:51:10;;;;;;;2.43;1.27;;;13.10;99.90;;;;;;5045771;28;20625;-65
2022/10/28 03:53:35;;;;;;;6.60;1.50;;;13.10;99.90;;;;;;5050504;28;20233;-64
2022/10/28 03:56:02;;;;;;;11.00;2.50;;;13.10;99.90;;;;;;5051460;28;20178;-64
2022/10/28 03:58:28;;;;;;;4.10;2.20;;;13.10;99.90;;;;;;5050845;28;20293;-64
2022/10/28 04:00:54;;;;;;;3.07;1.60;;;13.10;99.90;;;;;;5050985;28;20813;-64
2022/10/28 04:03:22;;;;;;;15.43;2.17;;;13.10;99.90;;;;;;5050742;28;20174;-64
2022/10/28 04:05:48;;;;;;;2.13;1.33;;;13.10;99.90;;;;;;5051356;28;20416;-64
2022/10/28 04:08:14;;;;;;;6.57;1.93;;;13.10;99.90;;;;;;5050794;28;20420;-65
2022/10/28 04:10:40;;;;;;;4.30;2.20;;;13.10;99.90;;;;;;5051286;28;20177;-64
2022/10/28 04:13:06;;;;;;;6.53;2.77;;;13.10;99.90;;;;;;5049859;28;20463;-64
2022/10/28 04:15:32;;;;;;;4.83;1.77;;;13.10;99.90;;;;;;5050797;28;20265;-64
2022/10/28 04:17:58;;;;;;;7.93;2.77;;;13.20;99.90;;;;;;5050900;28;20418;-64
2022/10/28 04:20:24;;;;;;;7.83;2.40;;;13.30;99.90;;;;;;5044380;28;20409;-65
2022/10/28 04:22:50;;;;;;;3.93;1.80;;;13.30;99.90;;;;;;5038671;28;20416;-65
2022/10/28 04:25:16;;;;;;;4.13;2.27;;;13.40;99.90;;;;;;5051341;28;20881;-64
2022/10/28 04:27:44;;;;;;;6.23;1.93;;;13.50;99.90;;;;;;5050863;28;20231;-64
2022/10/28 04:30:11;;;;;;;3.77;1.80;;;13.60;99.90;;;;;;5048893;28;20740;-64
2022/10/28 04:32:37;;;;;;;3.53;1.73;;;13.60;99.90;;;;;;5049907;28;20434;-64
2022/10/28 04:35:03;;;;;;;7.70;1.70;;;13.60;99.90;;;;;;5049852;28;20456;-64
2022/10/28 04:37:29;;;;;;;10.67;1.50;;;13.60;99.90;;;;;;5050669;28;20173;-64
2022/10/28 04:39:54;;;;;;;2.03;1.20;;;13.60;99.90;;;;;;5050031;28;20189;-64
2022/10/28 04:42:21;;;;;;;4.50;1.90;;;13.70;99.90;;;;;;5051469;28;20178;-64
2022/10/28 04:44:47;;;;;;;3.40;2.23;;;13.60;99.90;;;;;;5054504;28;20193;-64
2022/10/28 04:47:12;;;;;;;7.10;2.43;;;13.60;99.90;;;;;;5054161;28;20431;-64
2022/10/28 04:49:38;;;;;;;6.20;2.10;;;13.50;99.90;;;;;;5054612;28;20186;-64
2022/10/28 04:52:04;;;;;;;4.07;1.47;;;13.50;99.90;;;;;;5053738;28;20217;-64
2022/10/28 04:54:29;;;;;;;5.30;1.40;;;13.50;99.90;;;;;;5053958;28;20560;-64
2022/10/28 04:56:55;;;;;;;7.33;2.70;;;13.50;99.90;;;;;;5053660;28;20181;-64
2022/10/28 04:59:20;;;;;;;3.13;1.70;;;13.50;99.90;;;;;;5053849;28;20605;-64
2022/10/28 05:01:46;;;;;;;4.10;1.67;;;13.40;99.90;;;;;;5053377;28;20184;-64
2022/10/28 05:04:11;;;;;;;4.50;1.97;;;13.40;99.90;;;;;;5052888;28;20638;-64
2022/10/28 05:06:38;;;;;;;2.63;1.50;;;13.40;99.90;;;;;;5053887;28;20186;-64
2022/10/28 05:09:04;;;;;;;3.77;1.17;;;13.40;99.90;;;;;;5053648;28;20193;-64
2022/10/28 05:11:29;;;;;;;6.43;1.53;;;13.40;99.90;;;;;;5053052;28;20424;-64
2022/10/28 05:13:55;;;;;;;2.00;0.93;;;13.30;99.90;;;;;;5053118;28;20209;-64
2022/10/28 05:16:20;;;;;;;10.83;2.77;;;13.20;99.90;;;;;;5053677;28;20530;-64
2022/10/28 05:18:46;;;;;;;2.80;1.57;;;13.20;99.90;;;;;;5048096;28;20256;-64
2022/10/28 05:21:12;;;;;;;6.00;1.40;;;13.10;99.90;;;;;;5053816;28;20182;-64
2022/10/28 05:23:38;;;;;;;6.93;2.03;;;13.10;99.90;;;;;;5052848;28;20194;-64
2022/10/28 05:26:03;;;;;;;4.10;2.07;;;13.10;99.90;;;;;;5053838;28;20189;-64
2022/10/28 05:28:29;;;;;;;3.90;1.67;;;13.10;99.90;;;;;;5053160;28;20709;-64
2022/10/28 05:30:55;;;;;;;3.30;1.30;;;13.00;99.90;;;;;;5052519;28;20213;-64
2022/10/28 05:33:20;;;;;;;3.33;1.20;;;13.00;99.90;;;;;;5052430;28;20905;-64
2022/10/28 05:35:46;;;;;;;3.20;1.50;;;12.90;99.90;;;;;;5053682;28;20189;-64
2022/10/28 05:38:12;;;;;;;4.30;1.50;;;13.00;99.90;;;;;;5053301;28;20186;-64
2022/10/28 05:40:37;;;;;;;2.10;1.37;;;13.00;99.90;;;;;;5053494;28;20666;-65
2022/10/28 05:43:03;;;;;;;2.87;1.40;;;13.00;99.90;;;;;;5051642;28;20174;-65
2022/10/28 05:45:29;;;;;;;7.67;2.77;;;13.00;99.90;;;;;;5052992;28;20178;-65
2022/10/28 05:47:54;;;;;;;5.73;2.23;;;12.90;99.90;;;;;;5051824;28;20559;-65
2022/10/28 05:50:21;;;;;;;3.33;1.50;;;12.90;99.90;;;;;;5053106;28;20182;-64
2022/10/28 05:52:51;;;;;;;4.20;1.37;;;12.90;99.90;;;;;;5052552;28;20192;-64
2022/10/28 05:55:19;;;;;;;2.90;1.50;;;12.90;99.90;;;;;;5053151;28;20421;-64
2022/10/28 05:57:45;;;;;;;11.00;1.97;;;12.90;99.90;;;;;;5052546;28;20408;-64
2022/10/28 06:00:12;;;;;;;4.80;1.67;;;12.90;99.90;;;;;;5052563;28;20427;-64
2022/10/28 06:02:37;;;;;;;2.80;1.67;;;12.90;99.90;;;;;;5052028;28;20417;-64
2022/10/28 06:05:03;;;;;;;6.67;1.90;;;12.90;99.90;;;;;;5052407;28;20772;-64
2022/10/28 06:07:29;;;;;;;4.03;1.53;;;12.90;99.90;;;;;;5041500;28;20197;-65
2022/10/28 06:09:55;;;;;;;4.97;1.77;;;12.80;99.90;;;;;;5043288;28;20261;-65
2022/10/28 06:12:20;;;;;;;9.23;1.97;;;12.70;99.90;;;;;;5040431;28;20395;-64
2022/10/28 06:14:46;;;;;;;5.00;1.67;;;12.70;99.90;;;;;;5052666;28;20289;-64
2022/10/28 06:17:12;;;;;;;2.43;1.53;;;12.90;99.90;;;;;;5051816;28;20186;-64
2022/10/28 06:19:37;;;;;;;3.83;1.83;;;12.70;99.90;;;;;;5052055;28;20177;-64
2022/10/28 06:22:03;;;;;;;3.30;1.40;;;12.80;99.90;;;;;;5051933;28;20646;-64
2022/10/28 06:24:28;;;;;;;5.57;1.80;;;12.90;99.90;;;;;;5052391;28;20185;-64
2022/10/28 06:26:54;;;;;;;4.50;1.63;;;13.00;99.90;;;;;;5051517;28;20189;-65
2022/10/28 06:29:20;;;;;;;7.83;2.90;;;13.20;99.90;;;;;;5052185;28;20181;-65
2022/10/28 06:31:45;;;;;;;2.73;1.50;;;13.40;99.90;;;;;;5049864;28;20273;-64
2022/10/28 06:34:11;;;;;;;2.30;0.90;;;13.60;99.90;;;;;;5052230;28;20465;-64
2022/10/28 06:36:38;;;;;;;14.13;1.80;;;13.60;99.90;;;;;;5052006;28;20623;-65
2022/10/28 06:39:04;;;;;;;4.30;1.63;;;13.60;99.90;;;;;;5051627;28;20838;-64
2022/10/28 06:41:30;;;;;;;11.90;1.30;;;13.70;99.90;;;;;;5037808;28;20431;-63
2022/10/28 06:43:55;;;;;;;2.97;1.57;;;13.70;99.90;;;;;;5047957;28;20928;-63
2022/10/28 06:46:21;;;;;;;2.17;0.90;;;13.70;99.90;;;;;;5051016;28;20182;-64
2022/10/28 06:48:47;;;;;;;4.47;1.40;;;13.70;99.90;;;;;;5051455;28;20265;-65
2022/10/28 06:51:13;;;;;;;4.13;1.43;;;13.70;99.90;;;;;;5049284;28;20186;-64
2022/10/28 06:53:38;;;;;;;3.87;1.57;;;13.80;99.90;;;;;;5050037;28;20205;-64
2022/10/28 06:56:04;;;;;;;2.30;1.13;;;13.90;99.90;;;;;;5051800;28;20458;-64
2022/10/28 06:58:30;;;;;;;9.43;2.50;;;14.00;99.90;;;;;;5050771;28;20269;-64
2022/10/28 07:00:56;;;;;;;2.30;1.13;;;14.20;99.90;;;;;;5051229;28;20499;-65
2022/10/28 07:03:21;;;;;;;5.53;2.30;;;14.30;99.90;;;;;;5050845;28;20197;-67
2022/10/28 07:05:49;;;;;;;6.13;1.37;;;14.40;99.90;;;;;;5051931;28;20569;-64
2022/10/28 07:08:15;;;;;;;4.27;1.77;;;14.60;99.90;;;;;;5050913;28;20197;-64
2022/10/28 07:10:41;;;;;;;7.50;2.80;;;14.80;99.90;;;;;;5051296;28;20420;-65
2022/10/28 07:13:06;;;;;;;3.00;1.20;;;15.00;99.90;;;;;;5040921;28;20428;-64
2022/10/28 07:15:32;;;;;;;3.20;1.20;;;15.10;99.90;;;;;;5050931;28;20235;-63
2022/10/28 07:17:58;;;;;;;3.70;1.43;;;15.20;99.90;;;;;;5050090;28;20672;-65
2022/10/28 07:20:26;;;;;;;4.00;1.30;;;15.20;99.90;;;;;;5046993;28;20185;-65
2022/10/28 07:22:59;;;;;;;2.23;0.90;;;15.30;99.90;;;;;;5050798;28;20419;-65
2022/10/28 07:25:26;;;;;;;2.67;1.17;;;15.30;99.90;;;;;;5051161;28;20415;-67
2022/10/28 07:27:52;;;;;;;1.70;0.83;;;15.40;99.90;;;;;;5049907;28;20431;-65
2022/10/28 07:30:18;;;;;;;5.73;1.90;;;15.50;99.90;;;;;;5049974;28;20421;-65
2022/10/28 07:32:44;;;;;;;14.30;1.97;;;15.60;99.90;;;;;;5050280;28;20294;-65
2022/10/28 07:35:09;;;;;;;4.10;1.40;;;15.60;99.90;;;;;;5049933;28;20205;-65
2022/10/28 07:37:37;;;;;;;4.20;1.50;;;15.60;99.90;;;;;;5040072;28;20205;-66
2022/10/28 07:40:03;;;;;;;4.20;1.43;;;15.60;99.90;;;;;;5048355;28;20181;-66
2022/10/28 07:42:29;;;;;;;2.53;1.40;;;15.50;99.90;;;;;;5049736;28;20523;-66
2022/10/28 07:44:54;;;;;;;2.40;1.03;;;15.50;99.90;;;;;;5051233;28;20515;-66
2022/10/28 07:47:20;;;;;;;2.50;1.50;;;15.50;99.90;;;;;;5050502;28;20642;-65
2022/10/28 07:49:46;;;;;;;3.50;1.50;;;15.70;99.90;;;;;;5051118;28;20186;-65
2022/10/28 07:52:12;;;;;;;15.50;0.80;;;15.70;99.90;;;;;;5050622;28;20416;-65
2022/10/28 07:54:37;;;;;;;1.80;1.00;;;15.90;99.90;;;;;;5049651;28;20209;-66
2022/10/28 07:57:03;;;;;;;1.57;0.80;;;16.10;99.90;;;;;;5050430;28;20208;-65
2022/10/28 07:59:29;;;;;;;4.23;1.93;;;16.20;99.90;;;;;;5050911;28;20174;-66
2022/10/28 08:01:54;;;;;;;3.30;1.40;;;16.20;99.90;;;;;;5049952;28;20224;-65
2022/10/28 08:04:20;;;;;;;4.33;1.40;;;16.40;99.90;;;;;;5050652;28;20208;-66
2022/10/28 08:06:45;;;;;;;2.00;1.03;;;16.40;99.90;;;;;;5050809;28;20650;-66
2022/10/28 08:09:11;;;;;;;2.17;0.87;;;16.50;99.90;;;;;;5048354;28;20239;-66
2022/10/28 08:11:37;;;;;;;4.20;1.13;;;16.60;99.90;;;;;;5046318;28;20650;-65
2022/10/28 08:14:02;;;;;;;3.40;1.00;;;16.60;99.90;;;;;;5046909;28;20288;-65
2022/10/28 08:16:28;;;;;;;11.70;1.40;;;16.70;99.90;;;;;;5052709;28;20190;-65
2022/10/28 08:18:55;;;;;;;2.37;0.90;;;16.80;99.90;;;;;;5054062;28;20185;-65
2022/10/28 08:21:22;;;;;;;3.27;0.90;;;16.90;99.90;;;;;;5054182;28;20212;-66
2022/10/28 08:23:48;;;;;;;2.60;1.00;;;17.00;99.90;;;;;;5053933;28;20435;-66
2022/10/28 08:26:15;;;;;;;2.10;0.90;;;17.10;99.90;;;;;;5054617;28;20424;-65
2022/10/28 08:28:41;;;;;;;2.37;1.10;;;17.20;99.90;;;;;;5044041;28;20193;-65
2022/10/28 08:31:08;;;;;;;5.03;1.17;;;17.40;99.40;;;;;;5050726;28;20457;-65
2022/10/28 08:33:35;;;;;;;2.77;1.10;;;17.50;99.30;;;;;;5051794;28;21331;-66
2022/10/28 08:36:00;;;;;;;17.23;1.47;;;17.60;98.90;;;;;;5052410;28;20432;-66
2022/10/28 08:38:26;;;;;;;4.40;1.53;;;17.80;98.50;;;;;;5052602;28;20435;-66
2022/10/28 08:41:07;;;;;;;2.70;1.20;;;17.90;98.20;;;;;;5052347;28;20189;-66
2022/10/28 08:43:41;;;;;;;3.30;1.40;;;18.00;98.00;;;;;;5047181;28;20189;-66
2022/10/28 08:46:16;;;;;;;3.10;1.50;;;18.10;97.70;;;;;;5052198;28;20447;-66
2022/10/28 08:48:42;;;;;;;2.53;1.20;;;18.20;97.90;;;;;;5046331;28;20900;-66
2022/10/28 08:51:16;;;;;;;3.17;1.00;;;18.30;97.60;;;;;;5052485;28;20436;-66
2022/10/28 08:53:58;;;;;;;1.70;0.80;;;18.30;97.30;;;;;;5062274;28;20661;-65
2022/10/28 08:56:47;;;;;;;3.77;1.20;;;18.40;97.10;;;;;;5049773;28;20527;-66
2022/10/28 08:59:19;;;;;;;3.53;1.20;;;18.50;96.90;;;;;;5042226;28;20413;-66
2022/10/28 09:01:52;;;;;;;2.50;0.97;;;18.50;96.90;;;;;;5053152;28;20478;-66
2022/10/28 09:04:53;;;;;;;3.60;1.53;;;18.60;96.70;;;;;;5053537;28;20428;-66
2022/10/28 09:07:23;;;;;;;2.00;1.00;;;18.70;96.60;;;;;;5007268;28;20450;-65
2022/10/28 09:09:50;;;;;;;2.73;1.27;;;18.80;96.20;;;;;;5038524;28;20452;-66
2022/10/28 09:12:24;;;;;;;3.67;1.40;;;18.90;96.20;;;;;;5047267;28;20430;-66
2022/10/28 09:15:02;;;;;;;6.07;2.10;;;19.00;96.20;;;;;;5053794;28;20477;-66
2022/10/28 09:17:55;;;;;;;8.20;1.40;;;19.00;95.90;;;;;;5052817;28;20416;-66
2022/10/28 09:20:43;;;;;;;6.87;1.77;;;19.10;95.60;;;;;;5049161;28;20424;-66
2022/10/28 09:23:21;;;;;;;2.07;1.03;;;19.20;96.00;;;;;;5053660;28;20413;-66
2022/10/28 09:25:57;;;;;;;4.40;1.83;;;19.20;96.10;;;;;;5040463;28;20408;-66
2022/10/28 09:28:34;;;;;;;4.30;1.60;;;19.30;95.60;;;;;;5051992;28;20424;-66
2022/10/28 09:31:15;;;;;;;5.10;1.67;;;19.30;95.60;;;;;;5052614;28;20424;-65
2022/10/28 09:34:16;;;;;;;4.17;1.47;;;19.40;95.20;;;;;;5052577;28;20467;-66
2022/10/28 09:36:48;;;;;;;3.90;1.37;;;19.50;95.20;;;;;;5051738;28;20947;-65
2022/10/28 09:39:21;;;;;;;1.77;0.90;;;19.60;95.00;;;;;;5053023;28;20416;-65
2022/10/28 09:41:49;;;;;;;6.57;1.03;;;19.80;95.00;;;;;;5052231;28;20424;-65
2022/10/28 09:44:40;;;;;;;4.10;1.30;;;19.90;95.10;;;;;;5053098;28;20424;-66
2022/10/28 09:47:21;;;;;;;2.50;0.90;;;20.10;95.00;;;;;;5052706;28;20495;-65
2022/10/28 09:49:48;;;;;;;3.63;0.93;;;20.30;95.00;;;;;;5053082;28;20923;-65
2022/10/28 09:52:28;;;;;;;2.83;1.10;;;20.50;94.50;;;;;;5052369;28;20416;-66
2022/10/28 09:54:57;;;;;;;5.00;1.57;;;20.70;93.30;;;;;;5039545;28;20984;-66
2022/10/28 09:57:28;;;;;;;3.20;1.63;;;20.80;93.70;;;;;;5052013;28;20432;-66
2022/10/28 09:59:54;;;;;;;3.60;1.33;;;20.80;93.60;;;;;;5039801;28;20564;-65
2022/10/28 10:02:31;;;;;;;7.93;2.10;;;20.90;93.40;;;;;;5051854;28;20534;-66
2022/10/28 10:05:00;;;;;;;10.40;1.70;;;20.90;93.20;;;;;;5052721;28;20268;-66
2022/10/28 10:07:39;;;;;;;2.27;1.27;;;20.90;93.50;;;;;;5052206;28;20805;-66
2022/10/28 10:10:14;;;;;;;5.23;1.60;;;20.80;93.70;;;;;;5052576;28;20868;-66
2022/10/28 10:12:40;;;;;;;2.73;1.30;;;20.80;93.20;;;;;;5050368;28;20515;-66
2022/10/28 10:15:12;;;;;;;3.40;1.27;;;20.70;93.60;;;;;;5052601;28;20463;-66
2022/10/28 10:17:41;;;;;;;4.23;1.40;;;20.60;93.60;;;;;;5051769;28;20412;-66
2022/10/28 10:20:13;;;;;;;3.33;1.17;;;20.50;93.90;;;;;;5047365;28;20793;-66
2022/10/28 10:22:48;;;;;;;3.23;1.20;;;20.70;94.10;;;;;;5038617;28;20805;-66
2022/10/28 10:25:16;;;;;;;9.63;2.30;;;21.00;93.90;;;;;;5052407;28;21075;-66
2022/10/28 10:27:50;;;;;;;2.83;1.33;;;21.30;93.00;;;;;;5051216;28;20451;-66
2022/10/28 10:30:25;;;;;;;5.70;1.20;;;21.50;92.40;;;;;;5051479;28;20420;-66
2022/10/28 10:32:51;;;;;;;2.87;1.40;;;21.40;92.20;;;;;;5051165;28;20480;-66
2022/10/28 10:35:36;;;;;;;5.90;1.90;;;21.40;93.10;;;;;;5051982;28;20495;-66
2022/10/28 10:38:05;;;;;;;6.07;1.97;;;21.20;92.90;;;;;;5050898;28;21143;-66
2022/10/28 10:40:34;;;;;;;5.67;1.40;;;21.10;93.00;;;;;;5051865;28;20427;-66
2022/10/28 10:43:18;;;;;;;4.60;1.40;;;21.00;93.30;;;;;;5049643;28;20948;-66
2022/10/28 10:45:51;;;;;;;3.33;1.50;;;20.80;93.10;;;;;;5051992;28;20430;-66
2022/10/28 10:48:17;;;;;;;2.40;1.20;;;20.80;93.40;;;;;;5050762;28;20470;-66
2022/10/28 10:50:46;;;;;;;3.73;1.50;;;20.90;93.50;;;;;;5052054;28;20420;-66
2022/10/28 10:53:19;;;;;;;6.07;1.57;;;21.10;93.30;;;;;;5051051;28;20447;-66
2022/10/28 10:56:00;;;;;;;3.80;1.33;;;21.30;93.30;;;;;;5052029;28;20774;-66
2022/10/28 10:58:30;;;;;;;2.03;1.23;;;21.40;93.50;;;;;;5050913;28;20424;-66
2022/10/28 11:00:59;;;;;;;5.30;1.53;;;21.60;93.80;;;;;;5051498;28;20420;-66
2022/10/28 11:03:33;;;;;;;6.80;1.10;;;21.80;92.50;;;;;;5051006;28;20424;-66
2022/10/28 11:05:59;;;;;;;5.03;1.33;;;21.90;92.40;;;;;;5051536;28;20428;-66
2022/10/28 11:08:35;;;;;;;4.20;1.97;;;21.90;92.70;;;;;;5038247;28;20811;-66
2022/10/28 11:11:11;;;;;;;9.90;2.17;;;22.00;92.70;;;;;;5051483;28;20914;-66
2022/10/28 11:13:37;;;;;;;7.73;1.57;;;22.10;92.20;;;;;;5043741;28;20528;-66
2022/10/28 11:16:06;;;;;;;2.90;1.50;;;22.10;92.10;;;;;;5051297;28;20888;-66
2022/10/28 11:18:41;;;;;;;26.37;1.87;;;22.10;91.80;;;;;;5050316;28;20223;-66
2022/10/28 11:21:18;;;;;;;13.53;2.07;;;22.00;92.20;;;;;;5051389;28;20419;-66
2022/10/28 11:24:05;;;;;;;1.70;0.80;;;22.00;92.70;;;;;;5050304;28;20439;-66
2022/10/28 11:26:36;;;;;;;4.10;1.40;;;21.90;92.50;;;;;;5051252;28;20508;-66
2022/10/28 11:29:12;;;;;;;3.03;1.57;;;21.80;93.00;;;;;;5050463;28;20470;-66
2022/10/28 11:31:56;;;;;;;8.13;1.70;;;21.80;92.90;;;;;;5049011;28;20431;-66
2022/10/28 11:34:32;;;;;;;10.90;1.83;;;21.80;92.30;;;;;;5050927;28;20493;-66
2022/10/28 11:37:36;;;;;;;10.83;1.00;;;21.70;92.80;;;;;;5050931;28;20434;-66
2022/10/28 11:40:24;;;;;;;3.83;1.30;;;21.70;92.70;;;;;;5049667;28;20430;-66
2022/10/28 11:43:11;;;;;;;5.90;2.20;;;21.60;93.20;;;;;;5050511;28;20439;-66
2022/10/28 11:46:05;;;;;;;14.83;2.27;;;21.60;93.10;;;;;;5043010;28;20897;-66
2022/10/28 11:48:47;;;;;;;3.07;1.10;;;21.50;93.70;;;;;;5039453;28;20480;-66
2022/10/28 11:51:33;;;;;;;2.90;1.20;;;21.40;94.00;;;;;;5049844;28;20411;-66
2022/10/28 11:54:19;;;;;;;13.80;1.73;;;21.40;93.90;;;;;;5049549;28;20456;-66
2022/10/28 11:57:09;;;;;;;4.47;1.50;;;21.40;94.20;;;;;;5045264;28;20807;-66
2022/10/28 11:59:53;;;;;;;5.90;1.60;;;21.40;93.30;;;;;;5040842;28;20450;-66
2022/10/28 12:02:31;;;;;;;4.13;1.37;;;21.40;93.60;;;;;;5046449;28;20416;-66
2022/10/28 12:05:02;;;;;;;5.83;0.83;;;21.40;93.90;;;;;;5051644;28;20780;-71
2022/10/28 12:07:46;;;;;;;4.03;1.50;;;21.50;93.80;;;;;;5049223;28;20551;-71
2022/10/28 12:10:44;;;;;;;12.60;2.60;;;21.60;93.70;;;;;;5054916;28;20427;-71
2022/10/28 12:13:33;;;;;;;7.23;1.90;;;21.60;94.10;;;;;;5030130;28;20905;-71
2022/10/28 12:16:44;;;;;;;2.40;1.10;;;21.80;93.50;;;;;;5054645;28;20423;-71
2022/10/28 12:19:27;;;;;;;7.60;1.70;;;22.00;93.30;;;;;;5043011;28;20526;-71
2022/10/28 12:22:18;;;;;;;5.40;1.70;;;22.40;93.40;;;;;;5053998;28;20532;-71
2022/10/28 12:24:45;;;;;;;2.27;1.10;;;22.50;92.70;;;;;;5054865;28;20462;-71
2022/10/28 12:27:19;;;;;;;5.37;1.40;;;22.70;93.20;;;;;;5053972;28;20753;-71
2022/10/28 12:29:50;;;;;;;2.60;1.07;;;22.80;93.20;;;;;;5053632;28;20437;-71
2022/10/28 12:32:28;;;;;;;4.60;1.43;;;22.90;93.00;;;;;;5053801;28;20450;-71
2022/10/28 12:35:02;;;;;;;6.57;1.67;;;23.00;93.00;;;;;;5054671;28;20454;-71
2022/10/28 12:37:38;;;;;;;2.23;0.70;;;23.00;92.80;;;;;;5054153;28;20450;-71
2022/10/28 12:40:28;;;;;;;2.20;1.30;;;23.00;91.90;;;;;;5054105;28;20412;-71
2022/10/28 12:43:06;;;;;;;7.77;1.50;;;23.00;91.90;;;;;;5047679;28;20774;-71
2022/10/28 12:45:32;;;;;;;4.10;1.87;;;22.90;91.80;;;;;;5053901;28;20513;-71
2022/10/28 12:48:05;;;;;;;8.70;2.60;;;22.70;92.00;;;;;;5049639;28;20538;-66
2022/10/28 12:50:41;;;;;;;3.67;1.33;;;22.60;92.90;;;;;;5044533;28;20190;-66
2022/10/28 12:53:34;;;;;;;1.70;0.90;;;22.60;92.30;;;;;;5055770;28;20415;-66
2022/10/28 12:56:02;;;;;;;5.53;1.93;;;22.80;92.20;;;;;;5054267;28;20416;-66
2022/10/28 12:58:30;;;;;;;4.80;1.53;;;23.00;91.30;;;;;;5053860;28;20408;-67
2022/10/28 13:01:01;;;;;;;3.17;1.60;;;23.20;91.00;;;;;;5053440;28;20910;-66
2022/10/28 13:03:30;;;;;;;2.47;1.10;;;23.40;91.90;;;;;;5052369;28;20412;-66
2022/10/28 13:06:08;;;;;;;2.23;0.93;;;23.50;91.30;;;;;;5050748;28;20423;-66